sensor_id;sensor_type;location;lat;lon;timestamp;P1;durP1;ratioP1;P2;durP2;ratioP2
58468;SDS011;44257;44.804;10.220;2023-02-26T00:01:19;42.65;;;19.25;;
58468;SDS011;44257;44.804;10.220;2023-02-26T00:03:50;37.03;;;16.27;;
58468;SDS011;44257;44.804;10.220;2023-02-26T00:06:17;37.13;;;16.98;;
58468;SDS011;44257;44.804;10.220;2023-02-26T00:08:43;35.97;;;17.35;;
58468;SDS011;44257;44.804;10.220;2023-02-26T00:11:09;47.70;;;17.60;;
58468;SDS011;44257;44.804;10.220;2023-02-26T00:13:36;35.30;;;17.38;;
58468;SDS011;44257;44.804;10.220;2023-02-26T00:16:04;35.53;;;17.52;;
58468;SDS011;44257;44.804;10.220;2023-02-26T00:18:44;33.75;;;16.85;;
58468;SDS011;44257;44.804;10.220;2023-02-26T00:21:17;41.22;;;19.00;;
58468;SDS011;44257;44.804;10.220;2023-02-26T00:23:44;41.88;;;17.17;;
58468;SDS011;44257;44.804;10.220;2023-02-26T00:26:10;40.80;;;18.60;;
58468;SDS011;44257;44.804;10.220;2023-02-26T00:28:36;33.85;;;16.55;;
58468;SDS011;44257;44.804;10.220;2023-02-26T00:31:03;38.78;;;17.83;;
58468;SDS011;44257;44.804;10.220;2023-02-26T00:33:29;37.20;;;16.27;;
58468;SDS011;44257;44.804;10.220;2023-02-26T00:35:57;36.80;;;17.33;;
58468;SDS011;44257;44.804;10.220;2023-02-26T00:38:37;39.97;;;18.30;;
58468;SDS011;44257;44.804;10.220;2023-02-26T00:41:07;35.53;;;17.30;;
58468;SDS011;44257;44.804;10.220;2023-02-26T00:43:33;34.70;;;15.85;;
58468;SDS011;44257;44.804;10.220;2023-02-26T00:46:09;41.63;;;18.23;;
58468;SDS011;44257;44.804;10.220;2023-02-26T00:48:51;39.70;;;16.83;;
58468;SDS011;44257;44.804;10.220;2023-02-26T00:51:29;37.00;;;16.45;;
58468;SDS011;44257;44.804;10.220;2023-02-26T00:54:27;35.38;;;16.55;;
58468;SDS011;44257;44.804;10.220;2023-02-26T00:56:55;37.47;;;17.73;;
58468;SDS011;44257;44.804;10.220;2023-02-26T00:59:22;36.03;;;16.65;;
58468;SDS011;44257;44.804;10.220;2023-02-26T01:01:48;42.70;;;18.83;;
58468;SDS011;44257;44.804;10.220;2023-02-26T01:04:15;38.53;;;16.75;;
58468;SDS011;44257;44.804;10.220;2023-02-26T01:06:44;39.05;;;17.85;;
58468;SDS011;44257;44.804;10.220;2023-02-26T01:11:52;37.97;;;19.75;;
58468;SDS011;44257;44.804;10.220;2023-02-26T01:14:20;35.95;;;16.92;;
58468;SDS011;44257;44.804;10.220;2023-02-26T01:22:14;34.50;;;16.65;;
58468;SDS011;44257;44.804;10.220;2023-02-26T01:24:48;36.85;;;17.02;;
58468;SDS011;44257;44.804;10.220;2023-02-26T01:27:23;38.30;;;18.00;;
58468;SDS011;44257;44.804;10.220;2023-02-26T01:29:49;33.45;;;15.73;;
58468;SDS011;44257;44.804;10.220;2023-02-26T01:34:54;38.58;;;16.52;;
58468;SDS011;44257;44.804;10.220;2023-02-26T01:40:02;35.15;;;15.88;;
58468;SDS011;44257;44.804;10.220;2023-02-26T01:42:49;44.08;;;17.17;;
58468;SDS011;44257;44.804;10.220;2023-02-26T01:45:54;50.05;;;17.00;;
58468;SDS011;44257;44.804;10.220;2023-02-26T01:48:48;34.22;;;17.95;;
58468;SDS011;44257;44.804;10.220;2023-02-26T01:51:16;37.85;;;17.13;;
58468;SDS011;44257;44.804;10.220;2023-02-26T01:53:42;29.67;;;14.95;;
58468;SDS011;44257;44.804;10.220;2023-02-26T01:56:10;43.05;;;16.77;;
58468;SDS011;44257;44.804;10.220;2023-02-26T01:58:39;28.70;;;14.90;;
58468;SDS011;44257;44.804;10.220;2023-02-26T02:01:06;35.75;;;14.95;;
58468;SDS011;44257;44.804;10.220;2023-02-26T02:03:33;37.85;;;16.00;;
58468;SDS011;44257;44.804;10.220;2023-02-26T02:06:05;35.15;;;16.33;;
58468;SDS011;44257;44.804;10.220;2023-02-26T02:08:33;38.55;;;16.25;;
58468;SDS011;44257;44.804;10.220;2023-02-26T02:11:01;40.63;;;17.45;;
58468;SDS011;44257;44.804;10.220;2023-02-26T02:13:40;37.30;;;15.70;;
58468;SDS011;44257;44.804;10.220;2023-02-26T02:27:29;35.05;;;16.02;;
58468;SDS011;44257;44.804;10.220;2023-02-26T02:30:21;38.78;;;16.23;;
58468;SDS011;44257;44.804;10.220;2023-02-26T02:32:52;37.50;;;16.65;;
58468;SDS011;44257;44.804;10.220;2023-02-26T02:35:24;36.30;;;16.05;;
58468;SDS011;44257;44.804;10.220;2023-02-26T02:38:04;35.42;;;15.88;;
58468;SDS011;44257;44.804;10.220;2023-02-26T02:40:32;40.60;;;16.17;;
58468;SDS011;44257;44.804;10.220;2023-02-26T02:43:07;36.80;;;15.65;;
58468;SDS011;44257;44.804;10.220;2023-02-26T02:45:48;33.58;;;15.57;;
58468;SDS011;44257;44.804;10.220;2023-02-26T02:51:02;32.13;;;14.20;;
58468;SDS011;44257;44.804;10.220;2023-02-26T02:53:41;29.65;;;15.10;;
58468;SDS011;44257;44.804;10.220;2023-02-26T02:58:52;38.55;;;16.67;;
58468;SDS011;44257;44.804;10.220;2023-02-26T03:01:27;33.40;;;15.95;;
58468;SDS011;44257;44.804;10.220;2023-02-26T03:03:55;34.60;;;15.00;;
58468;SDS011;44257;44.804;10.220;2023-02-26T03:06:21;29.83;;;13.88;;
58468;SDS011;44257;44.804;10.220;2023-02-26T03:08:48;30.30;;;13.13;;
58468;SDS011;44257;44.804;10.220;2023-02-26T03:11:15;29.80;;;12.23;;
58468;SDS011;44257;44.804;10.220;2023-02-26T03:13:42;32.80;;;15.23;;
58468;SDS011;44257;44.804;10.220;2023-02-26T03:16:28;25.25;;;11.27;;
58468;SDS011;44257;44.804;10.220;2023-02-26T03:25:31;27.33;;;12.60;;
58468;SDS011;44257;44.804;10.220;2023-02-26T03:30:24;25.20;;;11.65;;
58468;SDS011;44257;44.804;10.220;2023-02-26T03:33:01;28.52;;;13.00;;
58468;SDS011;44257;44.804;10.220;2023-02-26T03:38:05;28.67;;;13.82;;
58468;SDS011;44257;44.804;10.220;2023-02-26T03:40:47;28.45;;;13.55;;
58468;SDS011;44257;44.804;10.220;2023-02-26T03:43:43;39.97;;;18.10;;
58468;SDS011;44257;44.804;10.220;2023-02-26T03:46:17;55.33;;;25.13;;
58468;SDS011;44257;44.804;10.220;2023-02-26T03:48:48;63.30;;;28.17;;
58468;SDS011;44257;44.804;10.220;2023-02-26T03:51:16;72.60;;;28.00;;
58468;SDS011;44257;44.804;10.220;2023-02-26T03:54:23;68.60;;;27.30;;
58468;SDS011;44257;44.804;10.220;2023-02-26T03:57:08;68.25;;;30.90;;
58468;SDS011;44257;44.804;10.220;2023-02-26T04:00:04;78.63;;;31.23;;
58468;SDS011;44257;44.804;10.220;2023-02-26T04:05:47;72.60;;;29.73;;
58468;SDS011;44257;44.804;10.220;2023-02-26T04:08:14;37.67;;;16.33;;
58468;SDS011;44257;44.804;10.220;2023-02-26T04:10:43;22.80;;;10.55;;
58468;SDS011;44257;44.804;10.220;2023-02-26T04:13:16;12.80;;;5.85;;
58468;SDS011;44257;44.804;10.220;2023-02-26T04:15:42;17.10;;;4.13;;
58468;SDS011;44257;44.804;10.220;2023-02-26T04:18:08;7.35;;;3.13;;
58468;SDS011;44257;44.804;10.220;2023-02-26T04:20:34;6.30;;;2.53;;
58468;SDS011;44257;44.804;10.220;2023-02-26T04:23:00;6.40;;;2.40;;
58468;SDS011;44257;44.804;10.220;2023-02-26T04:25:25;7.10;;;2.15;;
58468;SDS011;44257;44.804;10.220;2023-02-26T04:27:51;9.25;;;2.42;;
58468;SDS011;44257;44.804;10.220;2023-02-26T04:30:17;4.57;;;2.10;;
58468;SDS011;44257;44.804;10.220;2023-02-26T04:32:43;4.95;;;2.20;;
58468;SDS011;44257;44.804;10.220;2023-02-26T04:35:12;5.05;;;1.38;;
58468;SDS011;44257;44.804;10.220;2023-02-26T04:37:37;5.65;;;2.17;;
58468;SDS011;44257;44.804;10.220;2023-02-26T04:40:03;3.97;;;1.77;;
58468;SDS011;44257;44.804;10.220;2023-02-26T04:42:30;7.03;;;1.48;;
58468;SDS011;44257;44.804;10.220;2023-02-26T04:44:56;4.22;;;1.60;;
58468;SDS011;44257;44.804;10.220;2023-02-26T04:47:23;7.88;;;1.30;;
58468;SDS011;44257;44.804;10.220;2023-02-26T04:49:50;3.92;;;1.30;;
58468;SDS011;44257;44.804;10.220;2023-02-26T04:52:18;10.80;;;3.00;;
58468;SDS011;44257;44.804;10.220;2023-02-26T04:54:44;5.28;;;1.70;;
58468;SDS011;44257;44.804;10.220;2023-02-26T04:57:13;3.65;;;0.90;;
58468;SDS011;44257;44.804;10.220;2023-02-26T04:59:39;3.53;;;1.13;;
58468;SDS011;44257;44.804;10.220;2023-02-26T05:02:05;5.03;;;1.48;;
58468;SDS011;44257;44.804;10.220;2023-02-26T05:04:35;2.63;;;0.90;;
58468;SDS011;44257;44.804;10.220;2023-02-26T05:07:00;3.70;;;1.17;;
58468;SDS011;44257;44.804;10.220;2023-02-26T05:09:26;8.63;;;1.27;;
58468;SDS011;44257;44.804;10.220;2023-02-26T05:11:52;1.83;;;0.63;;
58468;SDS011;44257;44.804;10.220;2023-02-26T05:14:18;5.88;;;1.33;;
58468;SDS011;44257;44.804;10.220;2023-02-26T05:16:46;4.25;;;0.88;;
58468;SDS011;44257;44.804;10.220;2023-02-26T05:19:12;9.07;;;1.08;;
58468;SDS011;44257;44.804;10.220;2023-02-26T05:21:39;4.75;;;0.80;;
58468;SDS011;44257;44.804;10.220;2023-02-26T05:24:05;1.85;;;0.60;;
58468;SDS011;44257;44.804;10.220;2023-02-26T05:26:31;8.00;;;2.20;;
58468;SDS011;44257;44.804;10.220;2023-02-26T05:28:57;4.78;;;0.93;;
58468;SDS011;44257;44.804;10.220;2023-02-26T05:31:23;2.55;;;0.45;;
58468;SDS011;44257;44.804;10.220;2023-02-26T05:33:51;2.17;;;0.73;;
58468;SDS011;44257;44.804;10.220;2023-02-26T05:36:17;8.05;;;1.23;;
58468;SDS011;44257;44.804;10.220;2023-02-26T05:38:42;1.23;;;0.40;;
58468;SDS011;44257;44.804;10.220;2023-02-26T05:41:08;5.68;;;0.68;;
58468;SDS011;44257;44.804;10.220;2023-02-26T05:43:34;4.53;;;1.02;;
58468;SDS011;44257;44.804;10.220;2023-02-26T05:46:01;3.05;;;0.50;;
58468;SDS011;44257;44.804;10.220;2023-02-26T05:48:27;1.77;;;0.63;;
58468;SDS011;44257;44.804;10.220;2023-02-26T05:50:53;6.13;;;1.40;;
58468;SDS011;44257;44.804;10.220;2023-02-26T05:53:19;4.40;;;0.77;;
58468;SDS011;44257;44.804;10.220;2023-02-26T05:55:44;0.85;;;0.52;;
58468;SDS011;44257;44.804;10.220;2023-02-26T05:58:10;2.25;;;0.60;;
58468;SDS011;44257;44.804;10.220;2023-02-26T06:00:36;4.43;;;0.60;;
58468;SDS011;44257;44.804;10.220;2023-02-26T06:03:02;0.43;;;0.38;;
58468;SDS011;44257;44.804;10.220;2023-02-26T06:05:28;1.52;;;0.43;;
58468;SDS011;44257;44.804;10.220;2023-02-26T06:07:54;4.97;;;0.60;;
58468;SDS011;44257;44.804;10.220;2023-02-26T06:10:20;2.35;;;0.55;;
58468;SDS011;44257;44.804;10.220;2023-02-26T06:12:45;2.75;;;1.27;;
58468;SDS011;44257;44.804;10.220;2023-02-26T06:15:11;11.25;;;0.80;;
58468;SDS011;44257;44.804;10.220;2023-02-26T06:17:37;8.40;;;0.45;;
58468;SDS011;44257;44.804;10.220;2023-02-26T06:20:04;2.05;;;0.25;;
58468;SDS011;44257;44.804;10.220;2023-02-26T06:22:37;3.00;;;0.73;;
58468;SDS011;44257;44.804;10.220;2023-02-26T06:25:03;1.60;;;0.73;;
58468;SDS011;44257;44.804;10.220;2023-02-26T06:27:29;13.48;;;0.70;;
58468;SDS011;44257;44.804;10.220;2023-02-26T06:29:55;5.60;;;1.55;;
58468;SDS011;44257;44.804;10.220;2023-02-26T06:32:21;0.90;;;0.28;;
58468;SDS011;44257;44.804;10.220;2023-02-26T06:34:47;1.70;;;0.52;;
58468;SDS011;44257;44.804;10.220;2023-02-26T06:37:13;0.77;;;0.50;;
58468;SDS011;44257;44.804;10.220;2023-02-26T06:39:39;1.08;;;0.60;;
58468;SDS011;44257;44.804;10.220;2023-02-26T06:42:05;0.98;;;0.40;;
58468;SDS011;44257;44.804;10.220;2023-02-26T06:44:31;0.88;;;0.25;;
58468;SDS011;44257;44.804;10.220;2023-02-26T06:46:56;3.53;;;0.75;;
58468;SDS011;44257;44.804;10.220;2023-02-26T06:49:22;0.30;;;0.10;;
58468;SDS011;44257;44.804;10.220;2023-02-26T06:51:48;0.32;;;0.28;;
58468;SDS011;44257;44.804;10.220;2023-02-26T06:54:14;1.02;;;0.40;;
58468;SDS011;44257;44.804;10.220;2023-02-26T06:56:40;0.75;;;0.57;;
58468;SDS011;44257;44.804;10.220;2023-02-26T06:59:06;1.73;;;0.43;;
58468;SDS011;44257;44.804;10.220;2023-02-26T07:01:31;0.32;;;0.32;;
58468;SDS011;44257;44.804;10.220;2023-02-26T07:03:57;0.20;;;0.20;;
58468;SDS011;44257;44.804;10.220;2023-02-26T07:06:23;3.35;;;0.70;;
58468;SDS011;44257;44.804;10.220;2023-02-26T07:08:49;3.42;;;0.28;;
58468;SDS011;44257;44.804;10.220;2023-02-26T07:11:15;0.60;;;0.30;;
58468;SDS011;44257;44.804;10.220;2023-02-26T07:13:40;0.68;;;0.30;;
58468;SDS011;44257;44.804;10.220;2023-02-26T07:16:06;1.45;;;0.40;;
58468;SDS011;44257;44.804;10.220;2023-02-26T07:18:33;0.85;;;0.43;;
58468;SDS011;44257;44.804;10.220;2023-02-26T07:20:59;0.47;;;0.30;;
58468;SDS011;44257;44.804;10.220;2023-02-26T07:23:25;1.08;;;0.30;;
58468;SDS011;44257;44.804;10.220;2023-02-26T07:25:51;1.63;;;0.40;;
58468;SDS011;44257;44.804;10.220;2023-02-26T07:28:17;0.55;;;0.28;;
58468;SDS011;44257;44.804;10.220;2023-02-26T07:30:45;1.05;;;0.75;;
58468;SDS011;44257;44.804;10.220;2023-02-26T07:33:11;1.20;;;0.73;;
58468;SDS011;44257;44.804;10.220;2023-02-26T07:35:37;0.20;;;0.20;;
58468;SDS011;44257;44.804;10.220;2023-02-26T07:38:04;2.58;;;0.70;;
58468;SDS011;44257;44.804;10.220;2023-02-26T07:40:29;1.38;;;0.85;;
58468;SDS011;44257;44.804;10.220;2023-02-26T07:42:56;4.78;;;0.35;;
58468;SDS011;44257;44.804;10.220;2023-02-26T07:45:21;1.05;;;0.40;;
58468;SDS011;44257;44.804;10.220;2023-02-26T07:47:48;5.25;;;0.75;;
58468;SDS011;44257;44.804;10.220;2023-02-26T07:50:15;0.45;;;0.35;;
58468;SDS011;44257;44.804;10.220;2023-02-26T07:52:41;1.67;;;0.60;;
58468;SDS011;44257;44.804;10.220;2023-02-26T07:55:07;6.18;;;0.70;;
58468;SDS011;44257;44.804;10.220;2023-02-26T07:57:33;0.45;;;0.30;;
58468;SDS011;44257;44.804;10.220;2023-02-26T07:59:59;0.40;;;0.32;;
58468;SDS011;44257;44.804;10.220;2023-02-26T08:02:25;1.75;;;0.75;;
58468;SDS011;44257;44.804;10.220;2023-02-26T08:04:51;1.10;;;0.40;;
58468;SDS011;44257;44.804;10.220;2023-02-26T08:07:17;1.30;;;0.50;;
58468;SDS011;44257;44.804;10.220;2023-02-26T08:09:43;0.40;;;0.30;;
58468;SDS011;44257;44.804;10.220;2023-02-26T08:12:09;0.75;;;0.57;;
58468;SDS011;44257;44.804;10.220;2023-02-26T08:14:35;4.15;;;0.68;;
58468;SDS011;44257;44.804;10.220;2023-02-26T08:17:01;3.13;;;0.32;;
58468;SDS011;44257;44.804;10.220;2023-02-26T08:19:27;0.50;;;0.30;;
58468;SDS011;44257;44.804;10.220;2023-02-26T08:21:53;0.32;;;0.22;;
58468;SDS011;44257;44.804;10.220;2023-02-26T08:24:20;1.80;;;0.63;;
58468;SDS011;44257;44.804;10.220;2023-02-26T08:26:46;2.45;;;0.57;;
58468;SDS011;44257;44.804;10.220;2023-02-26T08:29:12;0.55;;;0.30;;
58468;SDS011;44257;44.804;10.220;2023-02-26T08:31:38;1.58;;;0.40;;
58468;SDS011;44257;44.804;10.220;2023-02-26T08:34:04;0.90;;;0.20;;
58468;SDS011;44257;44.804;10.220;2023-02-26T08:36:30;0.30;;;0.20;;
58468;SDS011;44257;44.804;10.220;2023-02-26T08:38:57;0.30;;;0.30;;
58468;SDS011;44257;44.804;10.220;2023-02-26T08:41:23;0.32;;;0.28;;
58468;SDS011;44257;44.804;10.220;2023-02-26T08:43:51;1.15;;;0.30;;
58468;SDS011;44257;44.804;10.220;2023-02-26T08:46:17;0.20;;;0.20;;
58468;SDS011;44257;44.804;10.220;2023-02-26T08:48:43;0.25;;;0.17;;
58468;SDS011;44257;44.804;10.220;2023-02-26T08:51:09;6.35;;;3.38;;
58468;SDS011;44257;44.804;10.220;2023-02-26T08:53:35;0.25;;;0.20;;
58468;SDS011;44257;44.804;10.220;2023-02-26T08:56:01;1.63;;;0.65;;
58468;SDS011;44257;44.804;10.220;2023-02-26T08:58:27;0.70;;;0.32;;
58468;SDS011;44257;44.804;10.220;2023-02-26T09:00:53;0.77;;;0.30;;
58468;SDS011;44257;44.804;10.220;2023-02-26T09:03:18;1.75;;;0.35;;
58468;SDS011;44257;44.804;10.220;2023-02-26T09:05:44;0.80;;;0.40;;
58468;SDS011;44257;44.804;10.220;2023-02-26T09:08:10;1.75;;;0.57;;
58468;SDS011;44257;44.804;10.220;2023-02-26T09:10:39;0.82;;;0.30;;
58468;SDS011;44257;44.804;10.220;2023-02-26T09:13:05;3.95;;;0.30;;
58468;SDS011;44257;44.804;10.220;2023-02-26T09:15:31;0.90;;;0.50;;
58468;SDS011;44257;44.804;10.220;2023-02-26T09:17:57;2.45;;;0.85;;
58468;SDS011;44257;44.804;10.220;2023-02-26T09:20:23;1.35;;;0.68;;
58468;SDS011;44257;44.804;10.220;2023-02-26T09:22:49;1.35;;;0.38;;
58468;SDS011;44257;44.804;10.220;2023-02-26T09:25:15;1.92;;;1.30;;
58468;SDS011;44257;44.804;10.220;2023-02-26T09:27:41;0.63;;;0.38;;
58468;SDS011;44257;44.804;10.220;2023-02-26T09:30:07;0.88;;;0.57;;
58468;SDS011;44257;44.804;10.220;2023-02-26T09:32:33;0.60;;;0.40;;
58468;SDS011;44257;44.804;10.220;2023-02-26T09:34:59;0.88;;;0.50;;
58468;SDS011;44257;44.804;10.220;2023-02-26T09:37:25;0.45;;;0.45;;
58468;SDS011;44257;44.804;10.220;2023-02-26T09:39:51;1.02;;;0.30;;
58468;SDS011;44257;44.804;10.220;2023-02-26T09:45:11;0.32;;;0.32;;
58468;SDS011;44257;44.804;10.220;2023-02-26T09:47:54;1.27;;;0.70;;
58468;SDS011;44257;44.804;10.220;2023-02-26T09:55:30;0.85;;;0.30;;
58468;SDS011;44257;44.804;10.220;2023-02-26T09:58:03;0.28;;;0.20;;
58468;SDS011;44257;44.804;10.220;2023-02-26T10:00:40;0.75;;;0.30;;
58468;SDS011;44257;44.804;10.220;2023-02-26T10:03:19;1.52;;;0.50;;
58468;SDS011;44257;44.804;10.220;2023-02-26T10:13:57;0.40;;;0.40;;
58468;SDS011;44257;44.804;10.220;2023-02-26T10:16:29;0.22;;;0.22;;
58468;SDS011;44257;44.804;10.220;2023-02-26T10:19:06;0.38;;;0.22;;
58468;SDS011;44257;44.804;10.220;2023-02-26T10:21:46;0.52;;;0.30;;
58468;SDS011;44257;44.804;10.220;2023-02-26T10:24:29;0.10;;;0.10;;
58468;SDS011;44257;44.804;10.220;2023-02-26T10:27:16;0.20;;;0.20;;
58468;SDS011;44257;44.804;10.220;2023-02-26T10:32:34;1.10;;;0.22;;
58468;SDS011;44257;44.804;10.220;2023-02-26T10:35:02;0.57;;;0.50;;
58468;SDS011;44257;44.804;10.220;2023-02-26T10:43:03;0.55;;;0.38;;
58468;SDS011;44257;44.804;10.220;2023-02-26T10:52:51;0.65;;;0.30;;
58468;SDS011;44257;44.804;10.220;2023-02-26T10:58:47;0.32;;;0.32;;
58468;SDS011;44257;44.804;10.220;2023-02-26T11:02:12;0.15;;;0.10;;
58468;SDS011;44257;44.804;10.220;2023-02-26T11:05:36;1.30;;;0.20;;
58468;SDS011;44257;44.804;10.220;2023-02-26T11:14:49;0.65;;;0.30;;
58468;SDS011;44257;44.804;10.220;2023-02-26T11:17:28;0.20;;;0.20;;
58468;SDS011;44257;44.804;10.220;2023-02-26T11:23:38;0.45;;;0.30;;
58468;SDS011;44257;44.804;10.220;2023-02-26T11:26:24;0.60;;;0.30;;
58468;SDS011;44257;44.804;10.220;2023-02-26T11:29:34;2.47;;;0.40;;
58468;SDS011;44257;44.804;10.220;2023-02-26T11:32:35;0.55;;;0.30;;
58468;SDS011;44257;44.804;10.220;2023-02-26T11:35:02;0.20;;;0.20;;
58468;SDS011;44257;44.804;10.220;2023-02-26T11:37:38;1.63;;;0.38;;
58468;SDS011;44257;44.804;10.220;2023-02-26T11:40:10;0.70;;;0.43;;
58468;SDS011;44257;44.804;10.220;2023-02-26T11:42:52;0.65;;;0.32;;
58468;SDS011;44257;44.804;10.220;2023-02-26T11:45:23;2.88;;;0.90;;
58468;SDS011;44257;44.804;10.220;2023-02-26T11:50:21;0.82;;;0.30;;
58468;SDS011;44257;44.804;10.220;2023-02-26T11:52:53;0.80;;;0.80;;
58468;SDS011;44257;44.804;10.220;2023-02-26T11:58:17;0.28;;;0.28;;
58468;SDS011;44257;44.804;10.220;2023-02-26T12:00:46;0.30;;;0.30;;
58468;SDS011;44257;44.804;10.220;2023-02-26T12:03:15;0.20;;;0.20;;
58468;SDS011;44257;44.804;10.220;2023-02-26T12:05:46;0.40;;;0.40;;
58468;SDS011;44257;44.804;10.220;2023-02-26T12:10:47;0.47;;;0.40;;
58468;SDS011;44257;44.804;10.220;2023-02-26T12:13:39;2.85;;;0.22;;
58468;SDS011;44257;44.804;10.220;2023-02-26T12:16:27;0.55;;;0.35;;
58468;SDS011;44257;44.804;10.220;2023-02-26T12:18:58;4.03;;;0.55;;
58468;SDS011;44257;44.804;10.220;2023-02-26T12:32:39;1.48;;;0.82;;
58468;SDS011;44257;44.804;10.220;2023-02-26T12:35:53;0.50;;;0.30;;
58468;SDS011;44257;44.804;10.220;2023-02-26T12:43:44;0.50;;;0.45;;
58468;SDS011;44257;44.804;10.220;2023-02-26T12:51:37;0.93;;;0.60;;
58468;SDS011;44257;44.804;10.220;2023-02-26T12:54:40;1.05;;;0.40;;
58468;SDS011;44257;44.804;10.220;2023-02-26T13:06:08;0.77;;;0.38;;
58468;SDS011;44257;44.804;10.220;2023-02-26T13:14:22;1.48;;;0.50;;
58468;SDS011;44257;44.804;10.220;2023-02-26T13:17:00;3.03;;;0.60;;
58468;SDS011;44257;44.804;10.220;2023-02-26T13:19:48;0.73;;;0.40;;
58468;SDS011;44257;44.804;10.220;2023-02-26T13:22:19;0.65;;;0.30;;
58468;SDS011;44257;44.804;10.220;2023-02-26T13:25:01;1.08;;;0.55;;
58468;SDS011;44257;44.804;10.220;2023-02-26T13:27:31;2.80;;;0.50;;
58468;SDS011;44257;44.804;10.220;2023-02-26T13:30:13;0.55;;;0.40;;
58468;SDS011;44257;44.804;10.220;2023-02-26T13:32:43;0.65;;;0.55;;
58468;SDS011;44257;44.804;10.220;2023-02-26T13:37:47;3.65;;;0.55;;
58468;SDS011;44257;44.804;10.220;2023-02-26T13:40:23;1.35;;;0.73;;
58468;SDS011;44257;44.804;10.220;2023-02-26T13:43:14;1.38;;;0.50;;
58468;SDS011;44257;44.804;10.220;2023-02-26T13:51:41;2.08;;;0.57;;
58468;SDS011;44257;44.804;10.220;2023-02-26T14:06:51;2.20;;;0.40;;
58468;SDS011;44257;44.804;10.220;2023-02-26T14:12:02;1.33;;;0.68;;
58468;SDS011;44257;44.804;10.220;2023-02-26T14:14:33;1.33;;;0.88;;
58468;SDS011;44257;44.804;10.220;2023-02-26T14:17:18;2.50;;;0.70;;
58468;SDS011;44257;44.804;10.220;2023-02-26T14:22:19;0.88;;;0.50;;
58468;SDS011;44257;44.804;10.220;2023-02-26T14:27:37;0.77;;;0.40;;
58468;SDS011;44257;44.804;10.220;2023-02-26T14:35:13;0.35;;;0.28;;
58468;SDS011;44257;44.804;10.220;2023-02-26T14:37:42;0.93;;;0.50;;
58468;SDS011;44257;44.804;10.220;2023-02-26T14:42:58;4.43;;;0.77;;
58468;SDS011;44257;44.804;10.220;2023-02-26T14:48:06;2.78;;;0.52;;
58468;SDS011;44257;44.804;10.220;2023-02-26T14:53:42;0.95;;;0.45;;
58468;SDS011;44257;44.804;10.220;2023-02-26T15:04:41;2.85;;;0.60;;
58468;SDS011;44257;44.804;10.220;2023-02-26T15:23:48;0.35;;;0.20;;
58468;SDS011;44257;44.804;10.220;2023-02-26T15:28:51;0.50;;;0.50;;
58468;SDS011;44257;44.804;10.220;2023-02-26T15:31:19;6.13;;;0.88;;
58468;SDS011;44257;44.804;10.220;2023-02-26T15:33:54;0.45;;;0.35;;
58468;SDS011;44257;44.804;10.220;2023-02-26T15:36:20;0.60;;;0.40;;
58468;SDS011;44257;44.804;10.220;2023-02-26T15:38:58;1.15;;;0.60;;
58468;SDS011;44257;44.804;10.220;2023-02-26T15:41:29;1.30;;;0.60;;
58468;SDS011;44257;44.804;10.220;2023-02-26T15:43:58;4.53;;;0.90;;
58468;SDS011;44257;44.804;10.220;2023-02-26T15:46:28;2.03;;;0.90;;
58468;SDS011;44257;44.804;10.220;2023-02-26T15:49:01;0.45;;;0.30;;
58468;SDS011;44257;44.804;10.220;2023-02-26T15:51:32;1.25;;;0.38;;
58468;SDS011;44257;44.804;10.220;2023-02-26T15:53:58;2.30;;;0.73;;
58468;SDS011;44257;44.804;10.220;2023-02-26T15:56:32;0.77;;;0.43;;
58468;SDS011;44257;44.804;10.220;2023-02-26T15:59:02;0.60;;;0.50;;
58468;SDS011;44257;44.804;10.220;2023-02-26T16:01:32;9.65;;;0.88;;
58468;SDS011;44257;44.804;10.220;2023-02-26T16:04:02;0.70;;;0.40;;
58468;SDS011;44257;44.804;10.220;2023-02-26T16:06:35;1.80;;;0.50;;
58468;SDS011;44257;44.804;10.220;2023-02-26T16:09:04;0.88;;;0.40;;
58468;SDS011;44257;44.804;10.220;2023-02-26T16:11:33;1.95;;;0.60;;
58468;SDS011;44257;44.804;10.220;2023-02-26T16:14:02;0.57;;;0.50;;
58468;SDS011;44257;44.804;10.220;2023-02-26T16:22:04;0.57;;;0.28;;
58468;SDS011;44257;44.804;10.220;2023-02-26T16:24:41;1.02;;;0.70;;
58468;SDS011;44257;44.804;10.220;2023-02-26T16:27:08;0.40;;;0.20;;
58468;SDS011;44257;44.804;10.220;2023-02-26T16:29:39;0.70;;;0.30;;
58468;SDS011;44257;44.804;10.220;2023-02-26T16:32:20;0.20;;;0.20;;
58468;SDS011;44257;44.804;10.220;2023-02-26T16:34:49;0.93;;;0.60;;
58468;SDS011;44257;44.804;10.220;2023-02-26T16:40:03;0.30;;;0.30;;
58468;SDS011;44257;44.804;10.220;2023-02-26T16:42:45;0.88;;;0.22;;
58468;SDS011;44257;44.804;10.220;2023-02-26T16:45:53;0.25;;;0.20;;
58468;SDS011;44257;44.804;10.220;2023-02-26T16:48:20;0.20;;;0.20;;
58468;SDS011;44257;44.804;10.220;2023-02-26T16:50:54;1.13;;;0.47;;
58468;SDS011;44257;44.804;10.220;2023-02-26T16:53:30;0.75;;;0.47;;
58468;SDS011;44257;44.804;10.220;2023-02-26T16:56:00;1.75;;;0.38;;
58468;SDS011;44257;44.804;10.220;2023-02-26T16:58:28;2.60;;;0.63;;
58468;SDS011;44257;44.804;10.220;2023-02-26T17:01:07;0.22;;;0.22;;
58468;SDS011;44257;44.804;10.220;2023-02-26T17:03:36;0.57;;;0.50;;
58468;SDS011;44257;44.804;10.220;2023-02-26T17:06:04;0.57;;;0.28;;
58468;SDS011;44257;44.804;10.220;2023-02-26T17:08:46;0.30;;;0.30;;
58468;SDS011;44257;44.804;10.220;2023-02-26T17:11:30;0.13;;;0.10;;
58468;SDS011;44257;44.804;10.220;2023-02-26T17:14:06;0.17;;;0.17;;
58468;SDS011;44257;44.804;10.220;2023-02-26T17:16:42;0.28;;;0.20;;
58468;SDS011;44257;44.804;10.220;2023-02-26T17:19:07;0.70;;;0.38;;
58468;SDS011;44257;44.804;10.220;2023-02-26T17:21:33;0.43;;;0.30;;
58468;SDS011;44257;44.804;10.220;2023-02-26T17:24:06;0.90;;;0.40;;
58468;SDS011;44257;44.804;10.220;2023-02-26T17:26:33;6.63;;;1.23;;
58468;SDS011;44257;44.804;10.220;2023-02-26T17:28:59;0.30;;;0.30;;
58468;SDS011;44257;44.804;10.220;2023-02-26T17:31:25;1.35;;;0.95;;
58468;SDS011;44257;44.804;10.220;2023-02-26T17:33:51;0.73;;;0.50;;
58468;SDS011;44257;44.804;10.220;2023-02-26T17:36:17;2.88;;;0.80;;
58468;SDS011;44257;44.804;10.220;2023-02-26T17:38:44;0.55;;;0.40;;
58468;SDS011;44257;44.804;10.220;2023-02-26T17:41:17;1.52;;;0.52;;
58468;SDS011;44257;44.804;10.220;2023-02-26T17:43:43;2.92;;;0.35;;
58468;SDS011;44257;44.804;10.220;2023-02-26T17:46:10;1.83;;;0.60;;
58468;SDS011;44257;44.804;10.220;2023-02-26T17:48:36;2.75;;;1.20;;
58468;SDS011;44257;44.804;10.220;2023-02-26T17:51:03;2.10;;;1.17;;
58468;SDS011;44257;44.804;10.220;2023-02-26T17:53:28;1.52;;;0.85;;
58468;SDS011;44257;44.804;10.220;2023-02-26T17:56:07;1.63;;;0.93;;
58468;SDS011;44257;44.804;10.220;2023-02-26T17:58:53;2.90;;;1.02;;
58468;SDS011;44257;44.804;10.220;2023-02-26T18:01:20;2.15;;;1.00;;
58468;SDS011;44257;44.804;10.220;2023-02-26T18:03:47;1.27;;;0.98;;
58468;SDS011;44257;44.804;10.220;2023-02-26T18:06:14;7.00;;;1.38;;
58468;SDS011;44257;44.804;10.220;2023-02-26T18:08:40;2.05;;;0.93;;
58468;SDS011;44257;44.804;10.220;2023-02-26T18:11:07;3.08;;;0.88;;
58468;SDS011;44257;44.804;10.220;2023-02-26T18:13:36;2.20;;;1.10;;
58468;SDS011;44257;44.804;10.220;2023-02-26T18:16:02;3.83;;;1.30;;
58468;SDS011;44257;44.804;10.220;2023-02-26T18:18:29;3.33;;;1.02;;
58468;SDS011;44257;44.804;10.220;2023-02-26T18:20:57;4.57;;;1.65;;
58468;SDS011;44257;44.804;10.220;2023-02-26T18:23:23;2.50;;;1.52;;